createdAt,value
2022-10-15T00:00:44.770Z,12.30
2022-10-15T00:03:14.819Z,11.73
2022-10-15T00:05:44.676Z,11.70
2022-10-15T00:08:14.868Z,12.43
2022-10-15T00:10:44.664Z,11.23
2022-10-15T00:13:14.249Z,12.33
2022-10-15T00:15:44.053Z,12.40
2022-10-15T00:18:13.555Z,11.13
2022-10-15T00:20:43.624Z,10.27
2022-10-15T00:23:13.146Z,10.07
2022-10-15T00:25:42.926Z,11.10
2022-10-15T00:28:12.736Z,10.03
2022-10-15T00:30:42.702Z,10.20
2022-10-15T00:33:12.496Z,11.03
2022-10-15T00:35:42.301Z,9.00
2022-10-15T00:38:12.166Z,10.20
2022-10-15T00:40:42.776Z,9.07
2022-10-15T00:43:13.236Z,8.90
2022-10-15T00:45:43.369Z,9.00
2022-10-15T00:48:13.382Z,9.47
2022-10-15T00:50:43.634Z,8.98
2022-10-15T00:53:13.403Z,8.83
2022-10-15T00:55:44.861Z,8.47
2022-10-15T00:58:17.719Z,8.80
2022-10-15T01:00:47.640Z,9.47
2022-10-15T01:03:17.998Z,8.73
2022-10-15T01:05:51.109Z,9.67
2022-10-15T01:08:20.984Z,9.23
2022-10-15T01:11:08.342Z,9.15
2022-10-15T01:13:41.189Z,9.37
2022-10-15T01:16:31.331Z,8.07
2022-10-15T01:19:14.189Z,9.00
2022-10-15T01:22:01.920Z,7.83
2022-10-15T01:24:46.347Z,9.30
2022-10-15T01:27:18.864Z,9.27
2022-10-15T01:30:00.815Z,8.43
2022-10-15T01:32:32.865Z,8.90
2022-10-15T01:35:08.456Z,9.37
2022-10-15T01:37:41.962Z,7.70
2022-10-15T01:40:36.690Z,8.13
2022-10-15T01:43:09.890Z,8.47
2022-10-15T01:45:50.271Z,9.73
2022-10-15T01:48:25.866Z,8.27
2022-10-15T01:51:00.821Z,8.70
2022-10-15T01:53:33.787Z,8.63
2022-10-15T01:56:09.843Z,8.50
2022-10-15T01:58:43.082Z,8.97
2022-10-15T02:01:12.884Z,9.60
2022-10-15T02:03:51.787Z,9.67
2022-10-15T02:06:32.568Z,8.60
2022-10-15T02:09:34.973Z,9.30
2022-10-15T02:12:10.435Z,10.43
2022-10-15T02:14:44.077Z,11.03
2022-10-15T02:17:15.970Z,12.83
2022-10-15T02:19:56.388Z,13.60
2022-10-15T02:22:29.237Z,12.73
2022-10-15T02:25:01.818Z,15.80
2022-10-15T02:27:34.259Z,14.83
2022-10-15T02:30:07.546Z,15.53
2022-10-15T02:32:40.638Z,11.87
2022-10-15T02:35:12.273Z,13.80
2022-10-15T02:37:46.981Z,13.17
2022-10-15T02:40:18.624Z,11.37
2022-10-15T02:42:51.250Z,12.28
2022-10-15T02:45:22.266Z,14.13
2022-10-15T02:50:21.600Z,10.93
2022-10-15T02:52:51.397Z,13.00
2022-10-15T02:55:20.913Z,12.27
2022-10-15T02:57:50.976Z,13.87
2022-10-15T03:00:20.481Z,12.70
2022-10-15T03:02:51.241Z,12.60
2022-10-15T03:05:21.451Z,12.50
2022-10-15T03:07:51.594Z,12.37
2022-10-15T03:10:21.811Z,11.47
2022-10-15T03:12:51.685Z,13.73
2022-10-15T03:15:21.806Z,12.37
2022-10-15T03:17:52.263Z,12.87
2022-10-15T03:20:22.195Z,12.13
2022-10-15T03:22:52.288Z,12.13
2022-10-15T03:25:21.836Z,11.27
2022-10-15T03:27:53.362Z,12.37
2022-10-15T03:30:24.745Z,10.40
2022-10-15T03:32:54.548Z,12.93
2022-10-15T03:37:53.782Z,9.48
2022-10-15T03:40:24.152Z,11.20
2022-10-15T03:42:56.500Z,10.20
2022-10-15T03:45:27.110Z,10.08
2022-10-15T03:48:15.596Z,9.85
2022-10-15T03:50:47.507Z,10.60
2022-10-15T03:53:17.249Z,9.20
2022-10-15T03:55:47.391Z,9.80
2022-10-15T03:58:17.602Z,9.03
2022-10-15T04:00:49.255Z,9.77
2022-10-15T04:03:19.107Z,9.43
2022-10-15T04:05:57.679Z,8.65
2022-10-15T04:08:30.461Z,10.55
2022-10-15T04:11:00.872Z,9.98
2022-10-15T04:13:31.497Z,9.18
2022-10-15T04:16:01.570Z,7.63
2022-10-15T04:18:31.715Z,8.97
2022-10-15T04:21:02.713Z,9.55
2022-10-15T04:23:34.237Z,8.53
2022-10-15T04:26:20.743Z,8.67
2022-10-15T04:28:50.666Z,8.77
2022-10-15T04:31:20.938Z,8.17
2022-10-15T04:33:51.577Z,8.50
2022-10-15T04:36:21.309Z,8.37
2022-10-15T04:39:01.847Z,9.47
2022-10-15T04:41:42.424Z,8.15
2022-10-15T04:44:16.882Z,8.98
2022-10-15T04:46:48.393Z,8.63
2022-10-15T04:49:19.984Z,8.03
2022-10-15T04:51:50.121Z,8.63
2022-10-15T04:54:21.749Z,8.25
2022-10-15T04:57:07.117Z,8.63
2022-10-15T04:59:37.543Z,8.50
2022-10-15T05:02:09.177Z,9.03
2022-10-15T05:04:39.201Z,8.03
2022-10-15T05:07:09.179Z,8.37
2022-10-15T05:09:43.998Z,8.93
2022-10-15T05:12:11.182Z,8.53
2022-10-15T05:14:41.984Z,9.25
2022-10-15T05:17:13.208Z,9.10
2022-10-15T05:19:43.638Z,8.33
2022-10-15T05:22:15.128Z,8.98
2022-10-15T05:24:46.637Z,9.03
2022-10-15T05:27:33.243Z,9.03
2022-10-15T05:30:04.483Z,8.53
2022-10-15T05:32:41.818Z,8.90
2022-10-15T05:35:13.041Z,7.70
2022-10-15T05:37:47.571Z,9.23
2022-10-15T05:40:21.091Z,8.23
2022-10-15T05:45:23.619Z,8.37
2022-10-15T05:47:59.311Z,8.60
2022-10-15T05:50:29.114Z,8.90
2022-10-15T05:52:59.118Z,8.60
2022-10-15T05:55:42.642Z,8.83
2022-10-15T05:58:12.449Z,8.55
2022-10-15T06:00:42.621Z,9.33
2022-10-15T06:03:15.203Z,8.83
2022-10-15T06:05:45.050Z,8.70
2022-10-15T06:08:15.013Z,9.93
2022-10-15T06:10:44.763Z,9.20
2022-10-15T06:13:15.563Z,9.90
2022-10-15T06:15:46.906Z,8.68
2022-10-15T06:18:16.708Z,7.55
2022-10-15T06:20:48.370Z,8.37
2022-10-15T06:23:18.180Z,9.98
2022-10-15T06:25:48.071Z,8.77
2022-10-15T06:28:17.979Z,9.63
2022-10-15T06:30:48.089Z,8.60
2022-10-15T06:33:17.608Z,9.30
2022-10-15T06:35:47.426Z,9.77
2022-10-15T06:38:16.940Z,9.60
2022-10-15T06:40:46.791Z,9.13
2022-10-15T06:43:16.447Z,8.87
2022-10-15T06:45:46.235Z,9.10
2022-10-15T06:48:21.809Z,9.60
2022-10-15T06:50:51.605Z,9.07
2022-10-15T06:53:22.444Z,10.20
2022-10-15T06:55:52.389Z,8.48
2022-10-15T06:58:22.225Z,9.70
2022-10-15T07:00:52.030Z,9.57
2022-10-15T07:03:21.515Z,9.67
2022-10-15T07:05:51.336Z,10.77
2022-10-15T07:08:21.150Z,9.43
2022-10-15T07:10:50.952Z,10.00
2022-10-15T07:13:22.477Z,9.53
2022-10-15T07:15:53.978Z,9.73
2022-10-15T07:18:24.177Z,9.98
2022-10-15T07:20:53.993Z,9.23
2022-10-15T07:23:27.032Z,10.33
2022-10-15T07:25:56.040Z,9.30
2022-10-15T07:28:26.159Z,9.40
2022-10-15T07:30:56.567Z,10.53
2022-10-15T07:33:26.373Z,10.87
2022-10-15T07:36:06.897Z,10.45
2022-10-15T07:38:37.146Z,9.90
2022-10-15T07:41:08.442Z,10.73
2022-10-15T07:43:40.229Z,10.10
2022-10-15T07:46:10.194Z,9.87
2022-10-15T07:48:40.068Z,10.83
2022-10-15T07:51:11.101Z,10.37
2022-10-15T07:53:41.197Z,10.23
2022-10-15T07:56:13.220Z,10.63
2022-10-15T07:58:43.296Z,10.60
2022-10-15T08:01:13.097Z,10.77
2022-10-15T08:03:42.912Z,10.93
2022-10-15T08:06:12.564Z,11.93
2022-10-15T08:08:42.355Z,12.00
2022-10-15T08:11:14.410Z,11.17
2022-10-15T08:13:47.038Z,11.87
2022-10-15T08:16:19.426Z,12.23
2022-10-15T08:21:21.780Z,12.03
2022-10-15T08:23:52.161Z,11.50
2022-10-15T08:26:23.548Z,12.30
2022-10-15T08:28:53.370Z,12.13
2022-10-15T08:33:59.647Z,11.00
2022-10-15T08:36:29.592Z,13.03
2022-10-15T08:38:59.566Z,12.03
2022-10-15T08:41:35.264Z,12.23
2022-10-15T08:44:08.127Z,11.43
2022-10-15T08:46:43.771Z,12.33
2022-10-15T08:49:19.425Z,12.07
2022-10-15T08:51:53.736Z,12.10
2022-10-15T08:54:23.726Z,13.17
2022-10-15T08:56:56.887Z,13.78
2022-10-15T08:59:36.694Z,11.23
2022-10-15T09:02:12.559Z,11.27
2022-10-15T09:05:01.073Z,11.73
2022-10-15T09:07:43.465Z,12.35
2022-10-15T09:10:32.721Z,11.83
2022-10-15T09:13:10.379Z,12.23
2022-10-15T09:15:42.816Z,11.30
2022-10-15T09:18:15.418Z,12.10
2022-10-15T09:20:45.833Z,12.35
2022-10-15T09:23:24.398Z,13.03
2022-10-15T09:26:00.232Z,12.53
2022-10-15T09:28:33.154Z,12.20
2022-10-15T09:31:03.397Z,11.83
2022-10-15T09:33:48.467Z,13.27
2022-10-15T09:36:34.249Z,11.20
2022-10-15T09:39:07.164Z,11.30
2022-10-15T09:41:53.708Z,11.37
2022-10-15T09:44:25.734Z,12.17
2022-10-15T09:46:55.570Z,11.03
2022-10-15T09:49:33.837Z,10.13
2022-10-15T09:52:18.872Z,10.63
2022-10-15T09:55:11.136Z,10.27
2022-10-15T09:57:41.657Z,9.37
2022-10-15T10:00:13.672Z,9.20
2022-10-15T10:02:42.975Z,8.20
2022-10-15T10:07:50.164Z,7.83
2022-10-15T10:10:28.256Z,7.80
2022-10-15T10:12:59.079Z,7.93
2022-10-15T10:15:38.717Z,7.37
2022-10-15T10:18:11.597Z,6.97
2022-10-15T10:20:44.441Z,7.13
2022-10-15T10:23:28.325Z,7.27
2022-10-15T10:26:00.229Z,7.00
2022-10-15T10:28:49.753Z,7.33
2022-10-15T10:31:21.616Z,7.17
2022-10-15T10:33:52.442Z,6.87
2022-10-15T10:36:31.598Z,6.80
2022-10-15T10:39:05.708Z,7.27
2022-10-15T10:42:04.663Z,6.57
2022-10-15T10:44:44.167Z,7.15
2022-10-15T10:47:25.823Z,7.20
2022-10-15T10:50:00.480Z,6.90
2022-10-15T10:52:33.209Z,6.30
2022-10-15T10:55:09.092Z,6.90
2022-10-15T10:57:50.841Z,5.97
2022-10-15T11:00:40.135Z,6.28
2022-10-15T11:03:30.348Z,5.87
2022-10-15T11:06:14.850Z,5.57
2022-10-15T11:09:06.020Z,5.60
2022-10-15T11:11:55.463Z,5.25
2022-10-15T11:14:56.147Z,4.87
2022-10-15T11:17:31.519Z,5.80
2022-10-15T11:22:59.336Z,5.30
2022-10-15T11:25:46.919Z,5.70
2022-10-15T11:28:39.203Z,6.95
2022-10-15T11:31:55.363Z,6.63
2022-10-15T11:34:45.022Z,5.87
2022-10-15T11:37:32.547Z,5.80
2022-10-15T11:43:20.786Z,5.70
2022-10-15T11:45:56.445Z,6.47
2022-10-15T11:48:35.020Z,6.47
2022-10-15T11:51:19.803Z,6.07
2022-10-15T11:54:01.305Z,5.90
2022-10-15T11:56:36.499Z,6.13
2022-10-15T11:59:12.356Z,7.65
2022-10-15T12:01:58.230Z,7.67
2022-10-15T12:04:52.190Z,7.30
2022-10-15T12:07:33.503Z,7.70
2022-10-15T12:10:06.338Z,9.00
2022-10-15T12:12:54.224Z,8.87
2022-10-15T12:15:38.095Z,7.53
2022-10-15T12:18:23.120Z,8.40
2022-10-15T12:20:54.833Z,7.63
2022-10-15T12:23:27.908Z,8.80
2022-10-15T12:25:59.151Z,7.83
2022-10-15T12:28:32.915Z,8.40
2022-10-15T12:31:05.569Z,9.33
2022-10-15T12:33:41.689Z,8.33
2022-10-15T12:36:30.359Z,8.37
2022-10-15T12:39:17.631Z,8.27
2022-10-15T12:41:46.134Z,8.20
2022-10-15T12:44:31.278Z,8.13
2022-10-15T12:47:02.021Z,8.33
2022-10-15T12:49:34.590Z,8.37
2022-10-15T12:52:07.430Z,7.50
2022-10-15T12:54:44.452Z,8.33
2022-10-15T12:57:38.646Z,8.13
2022-10-15T13:00:41.482Z,8.87
2022-10-15T13:03:20.061Z,9.46
2022-10-15T13:05:53.910Z,8.13
2022-10-15T13:08:25.791Z,9.08
2022-10-15T13:11:00.299Z,10.10
2022-10-15T13:13:32.916Z,10.17
2022-10-15T13:16:06.891Z,10.20
2022-10-15T13:18:37.524Z,9.65
2022-10-15T13:21:09.905Z,7.90
2022-10-15T13:23:40.194Z,7.80
2022-10-15T13:26:19.146Z,8.33
2022-10-15T13:28:51.293Z,8.37
2022-10-15T13:31:27.697Z,8.80
2022-10-15T13:34:01.787Z,8.93
2022-10-15T13:36:33.980Z,7.77
2022-10-15T13:39:12.945Z,8.37
2022-10-15T13:41:42.757Z,9.83
2022-10-15T13:44:24.517Z,9.53
2022-10-15T13:46:54.299Z,8.20
2022-10-15T13:49:26.562Z,9.27
2022-10-15T13:54:27.895Z,8.45
2022-10-15T13:57:01.786Z,8.70
2022-10-15T13:59:32.503Z,8.97
2022-10-15T14:02:05.038Z,9.65
2022-10-15T14:04:35.154Z,9.33
2022-10-15T14:07:27.677Z,9.05
2022-10-15T14:09:58.203Z,8.80
2022-10-15T14:12:28.024Z,10.70
2022-10-15T14:14:59.336Z,10.73
2022-10-15T14:17:29.881Z,10.05
2022-10-15T14:20:25.683Z,9.60
2022-10-15T14:22:36.081Z,8.85
2022-10-15T14:27:45.513Z,9.03
2022-10-15T14:30:18.092Z,9.43
2022-10-15T14:32:51.773Z,8.57
2022-10-15T14:35:33.467Z,9.27
2022-10-15T14:38:06.051Z,8.17
2022-10-15T14:40:35.567Z,9.40
2022-10-15T14:43:17.788Z,8.98
2022-10-15T14:45:59.909Z,8.58
2022-10-15T14:51:01.212Z,9.48
2022-10-15T14:53:35.882Z,10.07
2022-10-15T14:56:10.147Z,10.00
2022-10-15T14:58:40.227Z,8.93
2022-10-15T15:01:11.654Z,10.50
2022-10-15T15:03:43.953Z,8.73
2022-10-15T15:06:14.594Z,10.10
2022-10-15T15:08:44.533Z,9.48
2022-10-15T15:11:17.890Z,9.88
2022-10-15T15:13:48.120Z,9.57
2022-10-15T15:16:19.559Z,10.13
2022-10-15T15:18:49.367Z,10.53
2022-10-15T15:21:22.002Z,11.03
2022-10-15T15:23:52.439Z,10.57
2022-10-15T15:26:24.621Z,11.37
2022-10-15T15:28:54.554Z,10.63
2022-10-15T15:31:24.597Z,10.40
2022-10-15T15:33:54.997Z,10.70
2022-10-15T15:36:24.518Z,10.70
2022-10-15T15:38:56.697Z,11.10
2022-10-15T15:41:26.587Z,11.70
2022-10-15T15:43:56.762Z,12.05
2022-10-15T15:46:26.653Z,11.17
2022-10-15T15:48:58.091Z,11.30
2022-10-15T15:51:30.519Z,11.57
2022-10-15T15:54:02.092Z,10.63
2022-10-15T15:56:32.498Z,11.10
2022-10-15T15:59:02.320Z,12.03
2022-10-15T16:01:32.202Z,11.33
2022-10-15T16:04:02.022Z,12.10
2022-10-15T16:06:31.904Z,11.67
2022-10-15T16:09:02.673Z,12.30
2022-10-15T16:11:33.589Z,13.03
2022-10-15T16:14:08.419Z,12.78
2022-10-15T16:16:36.617Z,14.40
2022-10-15T16:19:08.305Z,14.50
2022-10-15T16:21:38.272Z,14.45
2022-10-15T16:24:08.248Z,12.53
2022-10-15T16:26:38.059Z,14.77
2022-10-15T16:29:07.882Z,13.93
2022-10-15T16:31:37.740Z,14.50
2022-10-15T16:34:08.584Z,14.00
2022-10-15T16:36:38.433Z,13.32
2022-10-15T16:39:08.319Z,12.37
2022-10-15T16:41:38.433Z,12.33
2022-10-15T16:44:08.299Z,11.07
2022-10-15T16:46:38.104Z,10.83
2022-10-15T16:49:07.702Z,10.57
2022-10-15T16:51:39.930Z,11.03
2022-10-15T16:54:10.333Z,9.90
2022-10-15T16:56:40.790Z,11.43
2022-10-15T16:59:10.540Z,11.57
2022-10-15T17:01:40.600Z,12.53
2022-10-15T17:04:10.394Z,10.93
2022-10-15T17:06:40.509Z,11.12
2022-10-15T17:09:10.312Z,11.43
2022-10-15T17:11:42.719Z,10.63
2022-10-15T17:14:14.891Z,10.03
2022-10-15T17:16:48.982Z,9.20
2022-10-15T17:19:23.692Z,9.73
2022-10-15T17:21:55.510Z,10.35
2022-10-15T17:24:25.212Z,11.22
2022-10-15T17:26:57.038Z,12.33
2022-10-15T17:29:30.581Z,12.50
2022-10-15T17:31:58.434Z,12.60
2022-10-15T17:34:30.430Z,13.18
2022-10-15T17:37:00.232Z,12.97
2022-10-15T17:39:30.077Z,12.43
2022-10-15T17:41:59.961Z,12.10
2022-10-15T17:44:29.917Z,12.77
2022-10-15T17:46:59.796Z,12.97
2022-10-15T17:49:30.221Z,13.30
2022-10-15T17:51:59.927Z,11.57
2022-10-15T17:54:30.019Z,10.67
2022-10-15T17:56:59.872Z,8.53
2022-10-15T17:59:29.803Z,9.20
2022-10-15T18:02:00.960Z,8.33
2022-10-15T18:04:34.170Z,9.27
2022-10-15T18:07:04.021Z,9.33
2022-10-15T18:09:33.990Z,8.97
2022-10-15T18:12:05.252Z,9.10
2022-10-15T18:14:35.974Z,9.75
2022-10-15T18:17:07.019Z,9.03
2022-10-15T18:19:36.909Z,9.17
2022-10-15T18:22:06.799Z,10.03
2022-10-15T18:24:36.530Z,9.90
2022-10-15T18:27:07.040Z,11.63
2022-10-15T18:29:36.977Z,10.43
2022-10-15T18:32:06.999Z,12.73
2022-10-15T18:34:37.315Z,10.93
2022-10-15T18:37:07.478Z,11.63
2022-10-15T18:39:37.435Z,11.50
2022-10-15T18:42:07.236Z,11.37
2022-10-15T18:44:37.045Z,10.27
2022-10-15T18:47:07.990Z,12.05
2022-10-15T18:49:39.615Z,11.47
2022-10-15T18:52:21.537Z,10.67
2022-10-15T18:54:41.056Z,11.03
2022-10-15T18:57:10.858Z,9.93
2022-10-15T18:59:41.778Z,10.63
2022-10-15T19:02:11.983Z,9.00
2022-10-15T19:04:41.543Z,11.27
2022-10-15T19:07:11.124Z,11.03
2022-10-15T19:09:40.932Z,9.63
2022-10-15T19:12:10.522Z,9.13
2022-10-15T19:14:41.329Z,9.47
2022-10-15T19:17:10.959Z,9.27
2022-10-15T19:19:40.880Z,11.03
2022-10-15T19:22:10.690Z,10.25
2022-10-15T19:24:40.506Z,10.40
2022-10-15T19:29:41.258Z,11.00
2022-10-15T19:32:11.130Z,10.30
2022-10-15T19:34:40.968Z,12.03
2022-10-15T19:37:10.827Z,10.07
2022-10-15T19:39:43.974Z,10.27
2022-10-15T19:42:14.017Z,10.82
2022-10-15T19:44:43.934Z,9.83
2022-10-15T19:47:16.973Z,9.33
2022-10-15T19:49:46.454Z,9.90
2022-10-15T19:52:16.324Z,9.73
2022-10-15T19:54:47.883Z,9.03
2022-10-15T19:57:17.811Z,8.03
2022-10-15T19:59:47.659Z,9.00
2022-10-15T20:02:17.244Z,9.27
2022-10-15T20:04:47.029Z,8.40
2022-10-15T20:07:17.412Z,8.67
2022-10-15T20:09:47.431Z,8.37
2022-10-15T20:12:17.239Z,11.08
2022-10-15T20:14:47.030Z,8.97
2022-10-15T20:17:16.650Z,8.30
2022-10-15T20:19:46.446Z,9.00
2022-10-15T20:22:15.957Z,9.47
2022-10-15T20:24:45.798Z,7.57
2022-10-15T20:27:15.622Z,9.33
2022-10-15T20:29:45.407Z,8.30
2022-10-15T20:32:30.501Z,8.40
2022-10-15T20:34:48.001Z,7.65
2022-10-15T20:37:17.873Z,8.83
2022-10-15T20:39:48.624Z,8.20
2022-10-15T20:42:18.680Z,9.13
2022-10-15T20:44:48.470Z,8.17
2022-10-15T20:47:19.004Z,8.80
2022-10-15T20:49:51.618Z,9.10
2022-10-15T20:52:23.005Z,9.00
2022-10-15T20:54:55.719Z,10.10
2022-10-15T20:57:25.603Z,8.87
2022-10-15T20:59:55.379Z,8.87
2022-10-15T21:02:25.246Z,9.60
2022-10-15T21:04:55.055Z,8.97
2022-10-15T21:07:27.645Z,9.83
2022-10-15T21:09:58.717Z,9.73
2022-10-15T21:12:28.777Z,9.47
2022-10-15T21:14:58.753Z,9.10
2022-10-15T21:17:28.962Z,10.27
2022-10-15T21:19:59.052Z,9.33
2022-10-15T21:22:29.154Z,9.23
2022-10-15T21:24:59.003Z,9.50
2022-10-15T21:27:28.946Z,9.37
2022-10-15T21:29:59.182Z,9.90
2022-10-15T21:32:29.168Z,10.10
2022-10-15T21:34:58.914Z,9.80
2022-10-15T21:37:30.487Z,10.73
2022-10-15T21:40:00.338Z,9.17
2022-10-15T21:42:30.990Z,10.33
2022-10-15T21:45:00.497Z,9.40
2022-10-15T21:47:30.521Z,9.77
2022-10-15T21:50:00.435Z,10.20
2022-10-15T21:52:30.516Z,9.70
2022-10-15T21:55:00.332Z,10.67
2022-10-15T21:57:30.429Z,11.43
2022-10-15T22:00:00.404Z,11.20
2022-10-15T22:02:30.277Z,10.40
2022-10-15T22:05:00.103Z,11.00
2022-10-15T22:07:29.916Z,11.23
2022-10-15T22:09:59.724Z,10.73
2022-10-15T22:12:29.602Z,10.37
2022-10-15T22:14:59.498Z,10.50
2022-10-15T22:17:29.373Z,10.83
2022-10-15T22:19:59.170Z,10.73
2022-10-15T22:22:29.016Z,12.03
2022-10-15T22:24:59.658Z,12.50
2022-10-15T22:27:29.161Z,13.73
2022-10-15T22:29:59.658Z,12.90
2022-10-15T22:32:29.530Z,12.67
2022-10-15T22:34:59.646Z,13.30
2022-10-15T22:37:29.452Z,11.57
2022-10-15T22:39:59.258Z,11.60
2022-10-15T22:42:29.434Z,11.95
2022-10-15T22:44:59.278Z,13.53
2022-10-15T22:47:29.385Z,11.63
2022-10-15T22:49:59.271Z,12.57
2022-10-15T22:52:29.184Z,11.77
2022-10-15T22:54:59.016Z,12.77
2022-10-15T22:57:28.838Z,11.67
2022-10-15T22:59:59.490Z,12.67
2022-10-15T23:02:29.100Z,13.23
2022-10-15T23:04:58.947Z,13.20
2022-10-15T23:07:28.755Z,12.83
2022-10-15T23:09:58.548Z,13.03
2022-10-15T23:12:28.711Z,11.90
2022-10-15T23:14:58.393Z,13.23
2022-10-15T23:17:28.214Z,11.77
2022-10-15T23:19:58.220Z,11.73
2022-10-15T23:22:28.306Z,12.47
2022-10-15T23:24:58.168Z,19.43
2022-10-15T23:27:31.295Z,16.53
2022-10-15T23:30:14.350Z,15.73
2022-10-15T23:32:32.607Z,14.10
2022-10-15T23:35:02.409Z,16.67
2022-10-15T23:37:32.194Z,18.83
2022-10-15T23:40:02.009Z,19.03
2022-10-15T23:42:32.584Z,19.03
2022-10-15T23:45:02.097Z,19.27
2022-10-15T23:47:31.891Z,17.80
2022-10-15T23:50:01.706Z,17.40
2022-10-15T23:52:32.794Z,16.77
2022-10-15T23:55:02.651Z,16.60
2022-10-15T23:57:32.444Z,16.47
